Terminal Aerodrome Forecast
Issued by NWS

Home | Current Version | Previous Version | Graphics & Text | Print | Product List | Glossary On
Versions: 1 2 3 4 5 6 7 8 9 10 11 12 13 14 15
000
FTUS43 KGRB 312335
TAFAUW
TAF
KAUW 312335Z 0100/0124 29010G17KT P6SM VCSH SCT050 BKN090
     FM010200 29004KT P6SM SCT090
     FM011500 28011G17KT P6SM SCT060=

USA.gov is the U.S. government's official web portal to all federal, state and local government web resources and services.